Time;durP1;ratioP1;P1;durP2;ratioP2;P2;SDS_P1;SDS_P2;PMS_P1;PMS_P2;Temp;Humidity;BMP_temperature;BMP_pressure;BME280_temperature;BME280_humidity;BME280_pressure;Samples;Min_cycle;Max_cycle;Signal;HPM_P1;HPM_P2
2021/03/07 00:02:16;;;;;;;7.15;4.57;;;;;;;;;;5048301;28;20025;-44
2021/03/07 00:04:42;;;;;;;9.80;4.93;;;;;;;;;;5038929;28;20034;-45
2021/03/07 00:07:08;;;;;;;9.38;6.00;;;;;;;;;;5038058;28;20025;-44
2021/03/07 00:09:34;;;;;;;7.40;4.93;;;;;;;;;;5035136;28;20466;-45
2021/03/07 00:12:00;;;;;;;6.45;5.18;;;;;;;;;;5035799;28;20029;-45
2021/03/07 00:14:26;;;;;;;6.90;4.68;;;;;;;;;;5040119;28;20029;-45
2021/03/07 00:16:52;;;;;;;9.25;5.18;;;;;;;;;;5037090;28;20060;-45
2021/03/07 00:19:18;;;;;;;8.70;6.03;;;;;;;;;;5044113;28;20048;-45
2021/03/07 00:21:44;;;;;;;8.18;5.82;;;;;;;;;;5052056;28;20017;-44
2021/03/07 00:24:10;;;;;;;10.00;5.40;;;;;;;;;;5041841;28;20052;-44
2021/03/07 00:26:36;;;;;;;7.80;5.50;;;;;;;;;;5052081;28;20040;-44
2021/03/07 00:29:02;;;;;;;8.98;5.43;;;;;;;;;;5054394;28;20052;-45
2021/03/07 00:31:28;;;;;;;14.27;6.05;;;;;;;;;;5054642;28;20055;-45
2021/03/07 00:33:54;;;;;;;11.23;6.40;;;;;;;;;;5052656;28;20060;-45
2021/03/07 00:36:20;;;;;;;8.55;6.13;;;;;;;;;;5038613;28;20033;-45
2021/03/07 00:38:46;;;;;;;10.45;6.35;;;;;;;;;;5054274;28;20017;-44
2021/03/07 00:41:12;;;;;;;8.07;5.90;;;;;;;;;;5050892;28;20033;-44
2021/03/07 00:43:38;;;;;;;8.65;6.10;;;;;;;;;;5044296;28;20358;-45
2021/03/07 00:46:05;;;;;;;9.00;6.03;;;;;;;;;;5036985;28;20029;-44
2021/03/07 00:48:31;;;;;;;12.52;6.47;;;;;;;;;;5034199;28;20030;-44
2021/03/07 00:50:57;;;;;;;12.15;6.70;;;;;;;;;;5050015;28;20462;-44
2021/03/07 00:53:23;;;;;;;13.75;5.80;;;;;;;;;;5043219;28;20126;-45
2021/03/07 00:55:49;;;;;;;11.15;6.22;;;;;;;;;;5051304;28;20043;-44
2021/03/07 00:58:15;;;;;;;9.77;6.38;;;;;;;;;;5035505;28;20113;-45
2021/03/07 01:00:45;;;;;;;10.63;6.22;;;;;;;;;;5033827;28;20155;-45
2021/03/07 01:03:11;;;;;;;10.75;6.10;;;;;;;;;;5033840;28;20030;-44
2021/03/07 01:05:38;;;;;;;12.65;6.50;;;;;;;;;;5041849;28;20035;-44
2021/03/07 01:08:04;;;;;;;11.20;6.25;;;;;;;;;;5042203;28;20109;-44
2021/03/07 01:10:33;;;;;;;10.15;6.43;;;;;;;;;;5051587;28;20036;-45
2021/03/07 01:12:59;;;;;;;10.68;6.22;;;;;;;;;;5046776;28;20033;-45
2021/03/07 01:15:26;;;;;;;11.63;7.00;;;;;;;;;;5048644;28;20036;-45
2021/03/07 01:17:53;;;;;;;10.77;6.10;;;;;;;;;;5042915;28;20111;-44
2021/03/07 01:20:19;;;;;;;8.98;5.90;;;;;;;;;;5048030;28;20112;-45
2021/03/07 01:22:45;;;;;;;9.55;6.25;;;;;;;;;;5033865;28;20168;-45
2021/03/07 01:25:11;;;;;;;9.57;5.70;;;;;;;;;;5039725;28;20051;-44
2021/03/07 01:27:38;;;;;;;7.72;5.70;;;;;;;;;;5052683;28;20452;-44
2021/03/07 01:30:09;;;;;;;8.75;6.57;;;;;;;;;;5047734;28;20120;-44
2021/03/07 01:32:35;;;;;;;11.32;5.82;;;;;;;;;;5043719;28;20039;-44
2021/03/07 01:35:01;;;;;;;9.60;5.93;;;;;;;;;;5033088;28;20035;-44
2021/03/07 01:37:27;;;;;;;10.27;5.72;;;;;;;;;;5034404;28;20041;-44
2021/03/07 01:39:53;;;;;;;11.20;5.40;;;;;;;;;;5046918;28;20018;-44
2021/03/07 01:42:20;;;;;;;7.30;4.57;;;;;;;;;;5033765;28;20373;-44
2021/03/07 01:44:46;;;;;;;7.65;4.63;;;;;;;;;;5040024;28;20492;-45
2021/03/07 01:47:12;;;;;;;8.45;4.85;;;;;;;;;;5049657;28;20033;-45
2021/03/07 01:49:38;;;;;;;8.02;4.72;;;;;;;;;;5040258;28;20120;-44
2021/03/07 01:52:04;;;;;;;4.82;3.63;;;;;;;;;;5039279;28;20108;-46
2021/03/07 01:54:30;;;;;;;7.68;4.10;;;;;;;;;;5053078;28;20107;-44
2021/03/07 01:56:57;;;;;;;4.68;3.30;;;;;;;;;;5053172;28;20104;-45
2021/03/07 01:59:24;;;;;;;7.63;3.50;;;;;;;;;;5036606;28;20045;-45
2021/03/07 02:01:51;;;;;;;8.13;3.38;;;;;;;;;;5033838;28;20116;-45
2021/03/07 02:04:17;;;;;;;6.35;3.22;;;;;;;;;;5052783;28;20028;-44
2021/03/07 02:06:43;;;;;;;5.75;2.85;;;;;;;;;;5052891;28;20020;-45
2021/03/07 02:09:09;;;;;;;8.00;3.00;;;;;;;;;;5043575;28;20034;-46
2021/03/07 02:11:37;;;;;;;6.57;2.88;;;;;;;;;;5046923;28;20029;-45
2021/03/07 02:14:03;;;;;;;6.53;3.22;;;;;;;;;;5052779;28;20032;-45
2021/03/07 02:16:29;;;;;;;5.82;3.03;;;;;;;;;;5052566;28;20110;-44
2021/03/07 02:18:55;;;;;;;6.07;2.75;;;;;;;;;;5049859;28;20028;-44
2021/03/07 02:21:28;;;;;;;7.43;3.47;;;;;;;;;;5050751;28;20028;-44
2021/03/07 02:23:57;;;;;;;6.73;3.20;;;;;;;;;;5035918;28;20025;-45
2021/03/07 02:26:23;;;;;;;11.43;3.47;;;;;;;;;;5039417;28;20649;-45
2021/03/07 02:28:49;;;;;;;4.93;3.38;;;;;;;;;;5043455;28;20374;-44
2021/03/07 02:31:16;;;;;;;6.82;3.20;;;;;;;;;;5032865;28;20389;-45
2021/03/07 02:33:43;;;;;;;7.00;2.40;;;;;;;;;;5040068;28;20405;-45
2021/03/07 02:36:11;;;;;;;6.45;2.45;;;;;;;;;;5050108;28;20021;-45
2021/03/07 02:38:38;;;;;;;5.47;2.30;;;;;;;;;;5041474;28;20108;-45
2021/03/07 02:41:06;;;;;;;5.88;2.45;;;;;;;;;;5049267;28;20101;-44
2021/03/07 02:43:34;;;;;;;7.72;2.10;;;;;;;;;;5042759;28;20029;-45
2021/03/07 02:46:01;;;;;;;4.38;2.45;;;;;;;;;;5035449;28;20116;-45
2021/03/07 02:48:28;;;;;;;6.55;2.30;;;;;;;;;;5032351;28;20030;-45
2021/03/07 02:50:57;;;;;;;3.95;1.80;;;;;;;;;;5049722;28;20108;-44
2021/03/07 02:53:24;;;;;;;4.50;2.10;;;;;;;;;;5052614;28;20505;-45
2021/03/07 02:56:02;;;;;;;6.15;2.20;;;;;;;;;;5042389;28;20029;-45
2021/03/07 02:58:28;;;;;;;3.38;1.73;;;;;;;;;;5040780;28;20109;-44
2021/03/07 03:00:57;;;;;;;4.30;1.98;;;;;;;;;;5049464;28;20424;-45
2021/03/07 03:03:27;;;;;;;5.15;2.20;;;;;;;;;;5035487;28;20335;-46
2021/03/07 03:05:53;;;;;;;4.85;1.70;;;;;;;;;;5049790;28;20035;-45
2021/03/07 03:08:19;;;;;;;7.63;1.88;;;;;;;;;;5041645;28;20466;-44
2021/03/07 03:10:48;;;;;;;4.38;1.80;;;;;;;;;;5037902;28;20091;-45
2021/03/07 03:13:14;;;;;;;6.47;2.45;;;;;;;;;;5036119;28;20128;-45
2021/03/07 03:15:40;;;;;;;8.18;2.28;;;;;;;;;;5043231;28;20100;-45
2021/03/07 03:18:07;;;;;;;7.90;2.70;;;;;;;;;;5042664;28;20040;-45
2021/03/07 03:20:33;;;;;;;6.55;2.08;;;;;;;;;;5035656;28;20029;-44
2021/03/07 03:22:59;;;;;;;6.10;2.75;;;;;;;;;;5046512;28;20407;-44
2021/03/07 03:25:25;;;;;;;6.07;2.80;;;;;;;;;;5041896;28;20041;-45
2021/03/07 03:27:54;;;;;;;4.80;2.50;;;;;;;;;;5035271;28;20049;-45
2021/03/07 03:30:20;;;;;;;9.30;3.58;;;;;;;;;;5035189;28;20025;-45
2021/03/07 03:32:46;;;;;;;7.75;3.00;;;;;;;;;;5048724;28;20529;-44
2021/03/07 03:35:17;;;;;;;6.90;2.85;;;;;;;;;;5047350;28;20414;-44
2021/03/07 03:37:43;;;;;;;4.93;2.80;;;;;;;;;;5036593;28;20136;-45
2021/03/07 03:40:11;;;;;;;4.85;2.30;;;;;;;;;;5043043;28;20042;-45
2021/03/07 03:42:40;;;;;;;8.15;2.67;;;;;;;;;;5043196;28;20108;-44
2021/03/07 03:45:07;;;;;;;6.97;2.70;;;;;;;;;;5036768;28;20030;-44
2021/03/07 03:47:34;;;;;;;5.63;2.85;;;;;;;;;;5042195;28;20108;-45
2021/03/07 03:50:01;;;;;;;7.85;2.55;;;;;;;;;;5035221;28;20466;-44
2021/03/07 03:52:29;;;;;;;6.15;3.13;;;;;;;;;;5035267;28;20079;-44
2021/03/07 03:55:00;;;;;;;6.60;3.40;;;;;;;;;;5040998;28;20044;-44
2021/03/07 03:57:27;;;;;;;6.60;2.78;;;;;;;;;;5042115;28;20063;-45
2021/03/07 03:59:56;;;;;;;4.80;2.75;;;;;;;;;;5039349;28;20022;-44
2021/03/07 04:02:23;;;;;;;5.95;2.70;;;;;;;;;;5034820;28;20036;-44
2021/03/07 04:04:49;;;;;;;6.20;2.65;;;;;;;;;;5039225;28;20033;-45
2021/03/07 04:07:18;;;;;;;7.88;2.67;;;;;;;;;;5040892;28;20028;-45
2021/03/07 04:09:44;;;;;;;7.38;2.95;;;;;;;;;;5046802;28;20096;-45
2021/03/07 04:12:10;;;;;;;6.10;3.08;;;;;;;;;;5039878;28;20029;-45
2021/03/07 04:14:37;;;;;;;7.28;2.33;;;;;;;;;;5035856;28;20036;-45
2021/03/07 04:17:03;;;;;;;4.65;3.22;;;;;;;;;;5035833;28;20037;-44
2021/03/07 04:19:31;;;;;;;6.80;3.05;;;;;;;;;;5035020;28;20029;-45
2021/03/07 04:21:58;;;;;;;6.63;2.63;;;;;;;;;;5049035;28;20031;-44
2021/03/07 04:24:25;;;;;;;7.65;3.13;;;;;;;;;;5043276;28;20151;-44
2021/03/07 04:26:51;;;;;;;6.72;2.90;;;;;;;;;;5040712;28;20098;-45
2021/03/07 04:29:17;;;;;;;5.70;2.80;;;;;;;;;;5041479;28;20140;-44
2021/03/07 04:31:43;;;;;;;6.93;3.00;;;;;;;;;;5034499;28;20109;-44
2021/03/07 04:34:09;;;;;;;5.47;3.13;;;;;;;;;;5033749;28;20036;-44
2021/03/07 04:36:36;;;;;;;6.85;2.70;;;;;;;;;;5034841;28;20038;-44
2021/03/07 04:39:03;;;;;;;5.07;2.47;;;;;;;;;;5035482;28;20461;-44
2021/03/07 04:41:29;;;;;;;5.20;2.83;;;;;;;;;;5039826;28;20150;-45
2021/03/07 04:43:56;;;;;;;4.75;2.65;;;;;;;;;;5045476;28;20442;-45
2021/03/07 04:46:23;;;;;;;8.07;3.00;;;;;;;;;;5038947;28;20048;-45
2021/03/07 04:48:50;;;;;;;6.00;2.97;;;;;;;;;;5034836;28;20041;-44
2021/03/07 04:51:16;;;;;;;5.90;2.78;;;;;;;;;;5046632;28;20052;-45
2021/03/07 04:53:42;;;;;;;7.15;3.00;;;;;;;;;;5034301;28;20350;-44
2021/03/07 04:56:08;;;;;;;8.50;3.30;;;;;;;;;;5034230;28;20033;-45
2021/03/07 04:58:34;;;;;;;9.82;3.17;;;;;;;;;;5041879;28;20365;-44
2021/03/07 05:01:00;;;;;;;5.40;3.03;;;;;;;;;;5034236;28;20029;-45
2021/03/07 05:03:26;;;;;;;7.22;3.08;;;;;;;;;;5033941;28;20036;-44
2021/03/07 05:05:52;;;;;;;5.90;3.17;;;;;;;;;;5038133;28;20041;-44
2021/03/07 05:08:18;;;;;;;6.03;3.30;;;;;;;;;;5038023;28;20026;-45
2021/03/07 05:10:44;;;;;;;4.53;2.85;;;;;;;;;;5034140;28;20057;-45
2021/03/07 05:13:10;;;;;;;5.63;2.70;;;;;;;;;;5038864;28;20060;-44
2021/03/07 05:15:36;;;;;;;8.10;3.75;;;;;;;;;;5044108;28;20084;-45
2021/03/07 05:18:02;;;;;;;4.55;3.03;;;;;;;;;;5042242;28;20026;-44
2021/03/07 05:20:28;;;;;;;8.00;3.13;;;;;;;;;;5039461;28;20033;-44
2021/03/07 05:22:54;;;;;;;5.00;2.72;;;;;;;;;;5048297;28;20044;-45
2021/03/07 05:25:20;;;;;;;7.22;3.10;;;;;;;;;;5041444;28;20485;-45
2021/03/07 05:27:46;;;;;;;8.95;2.75;;;;;;;;;;5041606;28;20041;-45
2021/03/07 05:30:13;;;;;;;7.20;2.80;;;;;;;;;;5045900;28;20029;-44
2021/03/07 05:32:39;;;;;;;5.07;2.92;;;;;;;;;;5033955;28;20025;-44
2021/03/07 05:35:05;;;;;;;3.97;2.75;;;;;;;;;;5045124;28;20090;-45
2021/03/07 05:37:31;;;;;;;4.80;3.00;;;;;;;;;;5035367;28;20033;-44
2021/03/07 05:39:57;;;;;;;7.15;2.92;;;;;;;;;;5040016;28;20092;-44
2021/03/07 05:42:23;;;;;;;5.47;2.33;;;;;;;;;;5045423;28;20029;-44
2021/03/07 05:44:50;;;;;;;5.03;2.95;;;;;;;;;;5048690;28;20116;-45
2021/03/07 05:47:16;;;;;;;3.45;2.35;;;;;;;;;;5037224;28;20039;-44
2021/03/07 05:49:42;;;;;;;4.57;2.67;;;;;;;;;;5033115;28;20067;-44
2021/03/07 05:52:09;;;;;;;4.05;2.53;;;;;;;;;;5034459;28;20040;-44
2021/03/07 05:54:35;;;;;;;6.10;2.38;;;;;;;;;;5033542;28;20089;-45
2021/03/07 05:57:02;;;;;;;7.05;2.70;;;;;;;;;;5036137;28;20099;-44
2021/03/07 05:59:31;;;;;;;5.35;2.25;;;;;;;;;;5035970;28;20025;-44
2021/03/07 06:01:57;;;;;;;6.30;2.15;;;;;;;;;;5037328;28;20025;-44
2021/03/07 06:04:23;;;;;;;6.05;2.45;;;;;;;;;;5038337;28;20116;-45
2021/03/07 06:06:49;;;;;;;4.95;2.35;;;;;;;;;;5032802;28;20033;-45
2021/03/07 06:09:16;;;;;;;3.25;2.22;;;;;;;;;;5041080;28;20059;-44
2021/03/07 06:11:42;;;;;;;4.45;2.30;;;;;;;;;;5035307;28;20684;-44
2021/03/07 06:14:28;;;;;;;5.53;2.50;;;;;;;;;;5039083;28;20041;-45
2021/03/07 06:16:57;;;;;;;6.40;2.45;;;;;;;;;;5034076;28;20038;-45
2021/03/07 06:19:23;;;;;;;4.53;2.17;;;;;;;;;;5041021;28;20060;-47
2021/03/07 06:21:49;;;;;;;11.10;4.68;;;;;;;;;;5037499;28;20112;-44
2021/03/07 06:24:34;;;;;;;9.15;2.28;;;;;;;;;;5040183;28;20112;-44
2021/03/07 06:27:10;;;;;;;5.80;2.53;;;;;;;;;;5035390;28;20743;-44
2021/03/07 06:29:53;;;;;;;7.82;2.55;;;;;;;;;;5034318;28;20040;-45
2021/03/07 06:32:19;;;;;;;3.33;2.10;;;;;;;;;;5035526;28;20474;-45
2021/03/07 06:34:46;;;;;;;5.75;2.65;;;;;;;;;;5038991;28;20033;-45
2021/03/07 06:37:12;;;;;;;4.32;2.15;;;;;;;;;;5038605;28;20037;-45
2021/03/07 06:39:38;;;;;;;8.57;2.58;;;;;;;;;;5036509;28;20037;-45
2021/03/07 06:42:08;;;;;;;7.90;2.08;;;;;;;;;;5036599;28;20025;-46
2021/03/07 06:44:35;;;;;;;7.20;2.15;;;;;;;;;;5036160;28;20018;-45
2021/03/07 06:47:06;;;;;;;3.95;2.08;;;;;;;;;;5051564;28;20032;-45
2021/03/07 06:49:32;;;;;;;12.93;2.20;;;;;;;;;;5039533;28;20155;-45
2021/03/07 06:52:15;;;;;;;5.68;2.28;;;;;;;;;;5036722;28;20069;-44
2021/03/07 06:54:41;;;;;;;9.20;2.30;;;;;;;;;;5037628;28;20029;-45
2021/03/07 06:57:07;;;;;;;5.55;2.25;;;;;;;;;;5044957;28;20033;-45
2021/03/07 06:59:34;;;;;;;5.25;2.03;;;;;;;;;;5042786;28;20044;-45
2021/03/07 07:02:00;;;;;;;11.57;2.28;;;;;;;;;;5042856;28;20120;-45
2021/03/07 07:04:38;;;;;;;6.90;1.77;;;;;;;;;;5041427;28;20029;-45
2021/03/07 07:07:05;;;;;;;4.15;2.00;;;;;;;;;;5037432;28;20080;-44
2021/03/07 07:09:32;;;;;;;4.63;2.28;;;;;;;;;;5039130;28;20083;-46
2021/03/07 07:11:58;;;;;;;4.38;2.05;;;;;;;;;;5038149;28;20120;-44
2021/03/07 07:14:37;;;;;;;7.82;1.83;;;;;;;;;;5040629;28;20171;-45
2021/03/07 07:17:03;;;;;;;6.63;2.47;;;;;;;;;;5044837;28;20082;-45
2021/03/07 07:19:29;;;;;;;7.60;2.20;;;;;;;;;;5039035;28;20451;-46
2021/03/07 07:21:55;;;;;;;6.43;2.05;;;;;;;;;;5041857;28;20063;-45
2021/03/07 07:24:22;;;;;;;4.50;2.08;;;;;;;;;;5047023;28;20052;-45
2021/03/07 07:26:49;;;;;;;4.20;1.98;;;;;;;;;;5040962;28;20036;-45
2021/03/07 07:29:17;;;;;;;3.00;1.80;;;;;;;;;;5038690;28;20080;-45
2021/03/07 07:31:55;;;;;;;5.63;2.47;;;;;;;;;;5038632;28;20030;-45
2021/03/07 07:34:29;;;;;;;4.28;2.05;;;;;;;;;;5039363;28;20551;-46
2021/03/07 07:36:58;;;;;;;6.00;2.17;;;;;;;;;;5034186;28;20030;-45
2021/03/07 07:39:32;;;;;;;7.63;1.88;;;;;;;;;;5037824;28;20362;-44
2021/03/07 07:41:59;;;;;;;3.55;2.15;;;;;;;;;;5043185;28;20594;-47
2021/03/07 07:44:29;;;;;;;3.70;1.60;;;;;;;;;;5034297;28;20022;-45
2021/03/07 07:46:57;;;;;;;6.68;2.13;;;;;;;;;;5041872;28;20037;-44
2021/03/07 07:49:40;;;;;;;5.30;2.13;;;;;;;;;;5036248;28;20025;-44
2021/03/07 07:52:24;;;;;;;4.28;1.98;;;;;;;;;;5035902;28;20037;-44
2021/03/07 07:54:58;;;;;;;5.55;2.10;;;;;;;;;;5036523;28;20072;-45
2021/03/07 07:57:33;;;;;;;8.52;1.70;;;;;;;;;;5046002;28;20028;-45
2021/03/07 08:00:04;;;;;;;7.00;2.50;;;;;;;;;;5040349;28;20032;-44
2021/03/07 08:02:42;;;;;;;3.97;1.55;;;;;;;;;;5035091;28;20036;-44
2021/03/07 08:05:21;;;;;;;6.65;1.95;;;;;;;;;;5037584;28;20515;-44
2021/03/07 08:07:59;;;;;;;3.35;2.00;;;;;;;;;;5038273;28;20017;-45
2021/03/07 08:10:38;;;;;;;6.00;1.85;;;;;;;;;;5036172;28;20362;-44
2021/03/07 08:13:04;;;;;;;8.80;2.30;;;;;;;;;;5047822;28;20057;-45
2021/03/07 08:15:37;;;;;;;5.93;2.03;;;;;;;;;;5035550;28;20072;-45
2021/03/07 08:18:04;;;;;;;4.03;2.43;;;;;;;;;;5040355;28;20537;-44
2021/03/07 08:20:39;;;;;;;6.45;1.95;;;;;;;;;;5045350;28;20078;-46
2021/03/07 08:23:08;;;;;;;2.83;1.77;;;;;;;;;;5038060;28;20386;-44
2021/03/07 08:25:47;;;;;;;5.68;2.17;;;;;;;;;;5039337;28;20071;-45
2021/03/07 08:28:28;;;;;;;5.53;1.60;;;;;;;;;;5037300;28;20117;-45
2021/03/07 08:31:07;;;;;;;2.97;1.60;;;;;;;;;;5037840;28;20049;-45
2021/03/07 08:33:34;;;;;;;5.68;1.85;;;;;;;;;;5036902;28;20025;-44
2021/03/07 08:36:19;;;;;;;3.00;1.67;;;;;;;;;;5047705;28;20032;-45
2021/03/07 08:38:51;;;;;;;5.45;1.77;;;;;;;;;;5042022;28;20022;-45
2021/03/07 08:41:27;;;;;;;10.73;1.90;;;;;;;;;;5038544;28;20021;-45
2021/03/07 08:43:55;;;;;;;4.57;1.90;;;;;;;;;;5040593;28;20132;-45
2021/03/07 08:46:29;;;;;;;3.97;1.95;;;;;;;;;;5040437;28;20025;-45
2021/03/07 08:49:10;;;;;;;6.15;1.95;;;;;;;;;;5040521;28;20527;-46
2021/03/07 08:51:37;;;;;;;3.15;1.85;;;;;;;;;;5037438;28;20041;-44
2021/03/07 08:54:04;;;;;;;5.88;1.80;;;;;;;;;;5041281;28;20105;-46
2021/03/07 08:56:30;;;;;;;7.93;1.95;;;;;;;;;;5034932;28;20037;-45
2021/03/07 08:58:56;;;;;;;5.13;2.17;;;;;;;;;;5039633;28;20068;-44
2021/03/07 09:01:23;;;;;;;6.20;2.00;;;;;;;;;;5040932;28;20025;-45
2021/03/07 09:03:56;;;;;;;6.07;1.83;;;;;;;;;;5041729;28;20049;-45
2021/03/07 09:06:27;;;;;;;3.30;2.17;;;;;;;;;;5038215;28;20029;-45
2021/03/07 09:09:01;;;;;;;3.63;2.03;;;;;;;;;;5042075;28;20041;-45
2021/03/07 09:11:27;;;;;;;4.53;1.98;;;;;;;;;;5038439;28;20076;-44
2021/03/07 09:13:53;;;;;;;6.78;2.95;;;;;;;;;;5040228;28;20044;-44
2021/03/07 09:16:19;;;;;;;4.32;2.67;;;;;;;;;;5035557;28;20116;-45
2021/03/07 09:18:45;;;;;;;5.20;3.83;;;;;;;;;;5033574;28;20025;-45
2021/03/07 09:21:12;;;;;;;7.65;2.20;;;;;;;;;;5036714;28;20022;-45
2021/03/07 09:23:42;;;;;;;4.03;2.47;;;;;;;;;;5041308;28;20486;-48
2021/03/07 09:26:16;;;;;;;5.78;2.60;;;;;;;;;;5035036;28;20052;-44
2021/03/07 09:28:43;;;;;;;4.72;2.83;;;;;;;;;;5039294;28;20099;-44
2021/03/07 09:31:09;;;;;;;9.90;3.28;;;;;;;;;;5033629;28;20064;-45
2021/03/07 09:33:35;;;;;;;4.22;2.88;;;;;;;;;;5037500;28;20030;-45
2021/03/07 09:36:03;;;;;;;4.75;2.53;;;;;;;;;;5041056;28;20053;-44
2021/03/07 09:38:39;;;;;;;6.72;3.80;;;;;;;;;;5040355;28;20028;-45
2021/03/07 09:41:06;;;;;;;4.45;2.42;;;;;;;;;;5036005;28;20109;-44
2021/03/07 09:43:32;;;;;;;7.93;2.58;;;;;;;;;;5041744;28;20041;-45
2021/03/07 09:45:58;;;;;;;5.72;2.63;;;;;;;;;;5034073;28;20029;-46
2021/03/07 09:48:29;;;;;;;5.88;2.78;;;;;;;;;;5046310;28;20025;-45
2021/03/07 09:50:55;;;;;;;4.88;2.78;;;;;;;;;;5032830;28;20061;-46
2021/03/07 09:53:22;;;;;;;3.72;2.60;;;;;;;;;;5039091;28;20142;-45
2021/03/07 09:55:48;;;;;;;5.18;2.55;;;;;;;;;;5040500;28;20373;-45
2021/03/07 09:58:14;;;;;;;7.78;2.85;;;;;;;;;;5033334;28;20025;-45
2021/03/07 10:00:41;;;;;;;5.43;2.97;;;;;;;;;;5035939;28;20339;-45
2021/03/07 10:03:26;;;;;;;10.27;3.30;;;;;;;;;;5032848;28;20048;-45
2021/03/07 10:06:11;;;;;;;5.60;2.47;;;;;;;;;;5032500;28;20109;-47
2021/03/07 10:08:37;;;;;;;9.30;3.17;;;;;;;;;;5033025;28;20026;-45
2021/03/07 10:11:14;;;;;;;7.15;2.95;;;;;;;;;;5035760;28;20459;-45
2021/03/07 10:13:41;;;;;;;8.07;3.17;;;;;;;;;;5036363;28;20018;-44
2021/03/07 10:16:08;;;;;;;10.32;3.50;;;;;;;;;;5037970;28;20025;-45
2021/03/07 10:18:34;;;;;;;6.90;3.28;;;;;;;;;;5035441;28;20021;-45
2021/03/07 10:21:00;;;;;;;8.77;3.20;;;;;;;;;;5044880;28;20159;-44
2021/03/07 10:23:31;;;;;;;6.47;2.97;;;;;;;;;;5036748;28;20108;-45
2021/03/07 10:25:58;;;;;;;5.53;2.92;;;;;;;;;;5040704;28;20059;-45
2021/03/07 10:28:25;;;;;;;11.00;3.38;;;;;;;;;;5032197;28;20045;-44
2021/03/07 10:30:52;;;;;;;7.07;2.88;;;;;;;;;;5042425;28;20034;-45
2021/03/07 10:33:30;;;;;;;6.18;3.08;;;;;;;;;;5046089;28;20037;-44
2021/03/07 10:36:00;;;;;;;6.57;2.78;;;;;;;;;;5033147;28;20673;-45
2021/03/07 10:38:26;;;;;;;6.65;3.30;;;;;;;;;;5033433;28;20108;-45
2021/03/07 10:40:53;;;;;;;6.10;3.20;;;;;;;;;;5032481;28;20517;-45
2021/03/07 10:43:19;;;;;;;7.47;3.42;;;;;;;;;;5033951;28;20470;-44
2021/03/07 10:45:45;;;;;;;4.68;2.88;;;;;;;;;;5036029;28;20754;-44
2021/03/07 10:48:12;;;;;;;6.32;3.40;;;;;;;;;;5034168;28;20025;-45
2021/03/07 10:50:42;;;;;;;4.07;2.97;;;;;;;;;;5035922;28;20029;-45
2021/03/07 10:53:08;;;;;;;9.05;3.58;;;;;;;;;;5031851;28;20025;-46
2021/03/07 10:55:34;;;;;;;9.68;3.47;;;;;;;;;;5033703;28;20025;-45
2021/03/07 10:58:00;;;;;;;5.97;3.40;;;;;;;;;;5036607;28;20111;-45
2021/03/07 11:00:26;;;;;;;8.13;3.35;;;;;;;;;;5037870;28;20095;-45
2021/03/07 11:02:53;;;;;;;10.23;3.22;;;;;;;;;;5041699;28;20159;-45
2021/03/07 11:05:19;;;;;;;6.65;3.60;;;;;;;;;;5038330;28;20021;-44
2021/03/07 11:07:45;;;;;;;9.23;3.78;;;;;;;;;;5034975;28;20022;-45
2021/03/07 11:10:13;;;;;;;8.48;3.20;;;;;;;;;;5039537;28;20025;-45
2021/03/07 11:12:39;;;;;;;6.45;3.28;;;;;;;;;;5046019;28;20416;-45
2021/03/07 11:15:06;;;;;;;6.07;3.25;;;;;;;;;;5036772;28;20385;-44
2021/03/07 11:17:32;;;;;;;6.03;3.35;;;;;;;;;;5041125;28;20480;-45
2021/03/07 11:19:59;;;;;;;7.90;3.38;;;;;;;;;;5032195;28;20035;-46
2021/03/07 11:22:25;;;;;;;12.55;3.67;;;;;;;;;;5035388;28;20100;-45
2021/03/07 11:24:51;;;;;;;6.68;2.78;;;;;;;;;;5039796;28;20044;-44
2021/03/07 11:27:17;;;;;;;4.57;3.03;;;;;;;;;;5046226;28;20024;-44
2021/03/07 11:29:43;;;;;;;5.75;3.47;;;;;;;;;;5048128;28;20110;-45
2021/03/07 11:32:09;;;;;;;4.72;3.20;;;;;;;;;;5038291;28;20053;-44
2021/03/07 11:34:35;;;;;;;6.43;3.30;;;;;;;;;;5044601;28;20112;-46
2021/03/07 11:37:01;;;;;;;7.45;3.17;;;;;;;;;;5038848;28;20029;-44
2021/03/07 11:39:27;;;;;;;8.20;3.60;;;;;;;;;;5048560;28;20384;-45
2021/03/07 11:41:53;;;;;;;6.25;3.72;;;;;;;;;;5044919;28;20037;-44
2021/03/07 11:44:19;;;;;;;7.63;3.47;;;;;;;;;;5035958;28;20351;-44
2021/03/07 11:46:45;;;;;;;6.70;3.60;;;;;;;;;;5039021;28;20036;-44
2021/03/07 11:49:11;;;;;;;9.10;3.47;;;;;;;;;;5035458;28;20155;-45
2021/03/07 11:51:37;;;;;;;10.68;4.13;;;;;;;;;;5046681;28;20029;-45
2021/03/07 11:54:03;;;;;;;8.77;3.83;;;;;;;;;;5038763;28;20048;-45
2021/03/07 11:56:31;;;;;;;8.27;3.65;;;;;;;;;;5042039;28;20068;-45
2021/03/07 11:58:57;;;;;;;6.70;3.88;;;;;;;;;;5042809;28;20029;-44
2021/03/07 12:01:23;;;;;;;6.28;3.85;;;;;;;;;;5036543;28;20544;-44
2021/03/07 12:03:49;;;;;;;7.57;3.60;;;;;;;;;;5040493;28;20436;-44
2021/03/07 12:06:15;;;;;;;8.57;3.47;;;;;;;;;;5049010;28;20010;-44
2021/03/07 12:08:41;;;;;;;8.45;3.67;;;;;;;;;;5039891;28;20021;-44
2021/03/07 12:11:07;;;;;;;5.70;3.28;;;;;;;;;;5050409;28;20028;-44
2021/03/07 12:13:33;;;;;;;8.02;3.55;;;;;;;;;;5041933;28;20021;-44
2021/03/07 12:15:59;;;;;;;7.72;4.05;;;;;;;;;;5049073;28;20451;-45
2021/03/07 12:18:25;;;;;;;7.13;3.75;;;;;;;;;;5048548;28;20049;-45
2021/03/07 12:20:51;;;;;;;5.03;3.30;;;;;;;;;;5035520;28;20056;-45
2021/03/07 12:23:17;;;;;;;9.05;4.50;;;;;;;;;;5040795;28;20099;-45
2021/03/07 12:25:43;;;;;;;7.60;4.05;;;;;;;;;;5042848;28;20122;-44
2021/03/07 12:28:09;;;;;;;5.15;3.60;;;;;;;;;;5054454;28;20115;-44
2021/03/07 12:30:35;;;;;;;8.80;3.72;;;;;;;;;;5049973;28;20040;-44
2021/03/07 12:33:01;;;;;;;7.95;3.60;;;;;;;;;;5039483;28;20477;-44
2021/03/07 12:35:27;;;;;;;8.68;3.83;;;;;;;;;;5035528;28;20022;-44
2021/03/07 12:37:53;;;;;;;8.35;4.07;;;;;;;;;;5039953;28;20078;-45
2021/03/07 12:40:19;;;;;;;6.30;3.53;;;;;;;;;;5047898;28;20030;-44
2021/03/07 12:42:45;;;;;;;6.25;3.33;;;;;;;;;;5043656;28;20017;-45
2021/03/07 12:45:11;;;;;;;6.15;3.72;;;;;;;;;;5041283;28;20025;-45
2021/03/07 12:47:37;;;;;;;7.53;3.50;;;;;;;;;;5041351;28;20025;-44
2021/03/07 12:50:04;;;;;;;7.13;3.42;;;;;;;;;;5035403;28;20527;-44
2021/03/07 12:52:31;;;;;;;7.00;3.58;;;;;;;;;;5035625;28;20108;-46
2021/03/07 12:54:56;;;;;;;8.88;4.00;;;;;;;;;;5037906;28;20429;-47
2021/03/07 12:57:22;;;;;;;8.00;3.22;;;;;;;;;;5034380;28;20052;-44
2021/03/07 12:59:48;;;;;;;6.07;3.28;;;;;;;;;;5043368;28;20106;-44
2021/03/07 13:02:14;;;;;;;9.75;3.50;;;;;;;;;;5033914;28;20013;-44
2021/03/07 13:04:40;;;;;;;8.75;3.42;;;;;;;;;;5044373;28;20154;-44
2021/03/07 13:07:06;;;;;;;6.28;3.53;;;;;;;;;;5034897;28;20366;-45
2021/03/07 13:09:32;;;;;;;9.52;3.38;;;;;;;;;;5037084;28;20032;-44
2021/03/07 13:11:58;;;;;;;6.00;3.38;;;;;;;;;;5034085;28;20446;-45
2021/03/07 13:14:24;;;;;;;6.60;3.53;;;;;;;;;;5033865;28;20115;-46
2021/03/07 13:16:50;;;;;;;8.23;3.10;;;;;;;;;;5041007;28;20359;-44
2021/03/07 13:19:16;;;;;;;4.60;2.80;;;;;;;;;;5036275;28;20116;-44
2021/03/07 13:21:42;;;;;;;7.82;2.65;;;;;;;;;;5037356;28;20040;-45
2021/03/07 13:24:09;;;;;;;10.20;3.05;;;;;;;;;;5040379;28;20029;-44
2021/03/07 13:26:35;;;;;;;6.80;2.47;;;;;;;;;;5036890;28;20021;-44
2021/03/07 13:29:01;;;;;;;6.25;3.13;;;;;;;;;;5043134;28;20378;-45
2021/03/07 13:31:27;;;;;;;7.70;2.63;;;;;;;;;;5035604;28;20040;-45
2021/03/07 13:33:53;;;;;;;8.38;2.67;;;;;;;;;;5041233;28;20052;-44
2021/03/07 13:36:19;;;;;;;9.82;2.60;;;;;;;;;;5034351;28;20032;-45
2021/03/07 13:38:45;;;;;;;5.03;2.97;;;;;;;;;;5036947;28;20026;-44
2021/03/07 13:41:11;;;;;;;5.20;2.83;;;;;;;;;;5035211;28;20029;-44
2021/03/07 13:43:37;;;;;;;4.55;2.53;;;;;;;;;;5033538;28;20501;-44
2021/03/07 13:46:03;;;;;;;7.75;2.45;;;;;;;;;;5034071;28;20033;-44
2021/03/07 13:48:29;;;;;;;8.38;3.03;;;;;;;;;;5039631;28;20021;-45
2021/03/07 13:50:55;;;;;;;6.00;2.70;;;;;;;;;;5036301;28;20125;-44
2021/03/07 13:53:21;;;;;;;7.35;2.15;;;;;;;;;;5047489;28;20029;-45
2021/03/07 13:55:47;;;;;;;16.20;2.88;;;;;;;;;;5031905;28;20120;-44
2021/03/07 13:58:13;;;;;;;5.35;2.13;;;;;;;;;;5044016;28;20520;-44
2021/03/07 14:00:39;;;;;;;6.25;2.60;;;;;;;;;;5041196;28;20036;-45
2021/03/07 14:03:05;;;;;;;5.88;2.50;;;;;;;;;;5042184;28;20034;-48
2021/03/07 14:05:31;;;;;;;8.52;2.78;;;;;;;;;;5048341;28;20439;-45
2021/03/07 14:07:57;;;;;;;5.95;2.28;;;;;;;;;;5038936;28;20432;-44
2021/03/07 14:10:23;;;;;;;8.93;2.25;;;;;;;;;;5035295;28;20072;-44
2021/03/07 14:12:49;;;;;;;7.20;2.60;;;;;;;;;;5033115;28;20033;-44
2021/03/07 14:15:16;;;;;;;2.92;2.25;;;;;;;;;;5039215;28;20511;-44
2021/03/07 14:17:42;;;;;;;3.53;2.10;;;;;;;;;;5034393;28;20051;-44
2021/03/07 14:20:09;;;;;;;10.27;2.60;;;;;;;;;;5032593;28;20456;-44
2021/03/07 14:22:35;;;;;;;5.95;2.55;;;;;;;;;;5040100;28;20028;-45
2021/03/07 14:25:01;;;;;;;5.78;3.05;;;;;;;;;;5038568;28;20029;-45
2021/03/07 14:27:27;;;;;;;5.25;2.47;;;;;;;;;;5033064;28;20037;-46
2021/03/07 14:29:53;;;;;;;9.38;3.38;;;;;;;;;;5032256;28;20538;-46
2021/03/07 14:32:19;;;;;;;6.40;2.60;;;;;;;;;;5041113;28;20029;-44
2021/03/07 14:34:45;;;;;;;5.57;2.60;;;;;;;;;;5047869;28;20029;-44
2021/03/07 14:37:11;;;;;;;7.50;3.05;;;;;;;;;;5033875;28;20037;-45
2021/03/07 14:39:38;;;;;;;8.07;3.03;;;;;;;;;;5049046;28;20040;-46
2021/03/07 14:42:04;;;;;;;6.88;3.33;;;;;;;;;;5040651;28;20028;-45
2021/03/07 14:44:30;;;;;;;6.90;3.08;;;;;;;;;;5035600;28;20431;-44